Time;durP1;ratioP1;P1;durP2;ratioP2;P2;SDS_P1;SDS_P2;PMS_P1;PMS_P2;Temp;Humidity;BMP_temperature;BMP_pressure;BME280_temperature;BME280_humidity;BME280_pressure;Samples;Min_cycle;Max_cycle;Signal;HPM_P1;HPM_P2
2023/10/18 00:00:32;;;;;;;5.10;2.53;;;10.30;99.90;;;;;;10055729;28;20506;-73
2023/10/18 00:05:25;;;;;;;4.33;2.13;;;10.30;99.90;;;;;;10045217;28;20510;-73
2023/10/18 00:10:19;;;;;;;2.92;2.38;;;10.20;99.90;;;;;;10063353;28;20283;-73
2023/10/18 00:15:11;;;;;;;5.75;2.75;;;10.20;99.90;;;;;;10044072;28;20188;-73
2023/10/18 00:20:06;;;;;;;5.03;3.03;;;10.00;99.90;;;;;;10061290;28;20163;-73
2023/10/18 00:24:56;;;;;;;3.85;2.47;;;10.10;99.90;;;;;;10061731;28;20036;-73
2023/10/18 00:29:47;;;;;;;5.28;3.00;;;10.00;99.90;;;;;;10046121;28;20041;-71
2023/10/18 00:34:38;;;;;;;4.90;3.47;;;10.00;99.90;;;;;;10058854;28;20079;-72
2023/10/18 00:39:32;;;;;;;6.35;2.67;;;10.00;99.90;;;;;;10061496;28;20041;-72
2023/10/18 00:44:23;;;;;;;5.32;2.63;;;10.00;99.90;;;;;;10061265;28;20475;-73
2023/10/18 00:49:14;;;;;;;5.97;3.25;;;9.90;99.90;;;;;;10058995;28;20053;-72
2023/10/18 00:54:11;;;;;;;4.68;2.95;;;9.90;99.90;;;;;;10059843;28;20068;-73
2023/10/18 00:59:04;;;;;;;7.53;3.78;;;10.00;99.90;;;;;;10059317;28;20083;-73
2023/10/18 01:03:56;;;;;;;4.38;2.95;;;9.90;99.90;;;;;;10061685;28;20029;-72
2023/10/18 01:08:47;;;;;;;7.75;3.30;;;9.80;99.90;;;;;;10061283;28;20033;-72
2023/10/18 01:13:41;;;;;;;7.50;3.70;;;9.80;99.90;;;;;;10059696;28;20491;-73
2023/10/18 01:18:32;;;;;;;6.18;3.60;;;9.80;99.90;;;;;;10056834;28;20063;-72
2023/10/18 01:23:23;;;;;;;5.03;3.17;;;9.70;99.90;;;;;;10059546;28;20018;-72
2023/10/18 01:28:14;;;;;;;5.65;3.60;;;9.70;99.90;;;;;;10062557;28;20048;-73
2023/10/18 01:33:10;;;;;;;4.43;3.25;;;9.80;99.90;;;;;;10059460;28;20045;-73
2023/10/18 01:38:04;;;;;;;4.80;3.28;;;9.70;99.90;;;;;;10058641;28;20538;-73
2023/10/18 01:42:58;;;;;;;6.65;3.60;;;9.70;99.90;;;;;;10059000;28;20033;-73
2023/10/18 01:47:50;;;;;;;5.72;3.28;;;9.70;99.90;;;;;;10056499;28;20510;-72
2023/10/18 01:52:41;;;;;;;6.63;3.33;;;9.60;99.90;;;;;;10058957;28;20049;-72
2023/10/18 01:57:32;;;;;;;5.38;3.00;;;9.60;99.90;;;;;;10057502;28;20037;-73
2023/10/18 02:02:23;;;;;;;3.75;3.00;;;9.60;99.90;;;;;;10040965;28;20037;-73
2023/10/18 02:07:17;;;;;;;5.55;2.80;;;9.50;99.90;;;;;;10057150;28;20047;-72
2023/10/18 02:12:08;;;;;;;5.18;3.53;;;9.50;99.90;;;;;;10056680;28;20037;-72
2023/10/18 02:17:09;;;;;;;6.10;2.92;;;9.40;99.90;;;;;;10057311;28;20387;-72
2023/10/18 02:22:00;;;;;;;5.90;3.00;;;9.40;99.90;;;;;;10055203;28;20446;-72
2023/10/18 02:26:54;;;;;;;4.57;3.38;;;9.50;99.90;;;;;;10060250;28;20087;-72
2023/10/18 02:31:45;;;;;;;4.22;3.20;;;9.40;99.90;;;;;;10056954;28;20068;-72
2023/10/18 02:36:39;;;;;;;5.03;3.15;;;9.30;99.90;;;;;;10056768;28;20083;-72
2023/10/18 02:41:29;;;;;;;4.13;3.20;;;9.30;99.90;;;;;;10057056;28;20522;-72
2023/10/18 02:46:24;;;;;;;4.78;3.40;;;9.20;99.90;;;;;;10059081;28;20045;-72
2023/10/18 02:51:15;;;;;;;5.87;3.17;;;9.20;99.90;;;;;;10054356;28;20025;-72
2023/10/18 02:56:06;;;;;;;6.22;3.50;;;9.10;99.90;;;;;;10061402;28;20028;-73
2023/10/18 03:01:02;;;;;;;4.70;2.85;;;9.20;99.90;;;;;;10055991;28;20030;-73
2023/10/18 03:05:53;;;;;;;4.43;3.08;;;9.20;99.90;;;;;;10034137;28;20530;-72
2023/10/18 03:10:44;;;;;;;3.78;2.92;;;9.10;99.90;;;;;;10053221;28;20036;-72
2023/10/18 03:15:46;;;;;;;6.00;3.00;;;9.20;99.90;;;;;;10047491;28;20075;-73
2023/10/18 03:20:37;;;;;;;5.60;3.20;;;9.10;99.90;;;;;;10038813;28;20025;-72
2023/10/18 03:25:30;;;;;;;4.07;3.28;;;9.10;99.90;;;;;;10055176;28;20025;-73
2023/10/18 03:30:23;;;;;;;5.72;3.35;;;9.10;99.90;;;;;;10041424;28;20312;-72
2023/10/18 03:35:13;;;;;;;5.65;3.13;;;9.10;99.90;;;;;;10058164;28;20040;-73
2023/10/18 03:40:24;;;;;;;5.55;3.78;;;9.10;99.90;;;;;;10063610;28;20390;-72
2023/10/18 03:45:20;;;;;;;6.13;3.47;;;9.10;99.90;;;;;;10063567;28;20041;-72
2023/10/18 03:50:15;;;;;;;9.10;3.53;;;9.00;99.90;;;;;;10063300;28;20087;-72
2023/10/18 03:55:39;;;;;;;5.47;3.55;;;8.90;99.90;;;;;;10062704;28;20040;-72
2023/10/18 04:10:40;;;;;;;6.03;3.67;;;8.80;99.90;;;;;;10022790;28;20511;-72
2023/10/18 04:15:37;;;;;;;7.85;3.85;;;8.90;99.90;;;;;;10060614;28;20033;-72
2023/10/18 04:20:34;;;;;;;6.57;3.80;;;9.00;99.90;;;;;;10055679;28;20021;-72
2023/10/18 04:25:29;;;;;;;8.68;3.53;;;9.00;99.90;;;;;;10049553;28;20036;-72
2023/10/18 04:30:22;;;;;;;5.55;3.33;;;8.90;99.90;;;;;;10045520;28;20546;-72
2023/10/18 04:35:25;;;;;;;5.53;3.22;;;8.80;99.90;;;;;;10061404;28;20458;-72
2023/10/18 04:40:22;;;;;;;7.38;3.40;;;8.80;99.90;;;;;;10060188;28;20025;-73
2023/10/18 04:45:16;;;;;;;6.63;4.00;;;8.80;99.90;;;;;;10061197;28;20026;-73
2023/10/18 04:50:11;;;;;;;6.53;3.67;;;8.80;99.90;;;;;;10059986;28;20021;-72
2023/10/18 04:55:05;;;;;;;6.18;3.22;;;8.80;99.90;;;;;;10060851;28;20079;-71
2023/10/18 04:59:59;;;;;;;8.70;4.20;;;8.80;99.90;;;;;;10057954;28;20465;-72
2023/10/18 05:04:50;;;;;;;8.10;4.30;;;8.80;99.90;;;;;;10042586;28;20033;-72
2023/10/18 05:09:45;;;;;;;6.28;3.70;;;8.90;99.90;;;;;;10016067;28;20033;-71
2023/10/18 05:14:42;;;;;;;5.50;3.35;;;8.80;99.90;;;;;;10057409;28;20046;-72
2023/10/18 05:19:37;;;;;;;7.40;4.22;;;8.70;99.90;;;;;;10059574;28;20108;-71
2023/10/18 05:24:28;;;;;;;6.00;3.30;;;8.80;99.90;;;;;;10049706;28;20033;-72
2023/10/18 05:29:18;;;;;;;10.73;3.50;;;8.70;99.90;;;;;;10058392;28;20388;-71
2023/10/18 05:39:49;;;;;;;5.40;3.55;;;8.60;99.90;;;;;;10055425;28;20406;-73
2023/10/18 05:44:12;;;;;;;6.07;3.72;;;8.60;99.90;;;;;;10032686;28;20522;-72
2023/10/18 05:49:13;;;;;;;12.40;3.85;;;8.60;99.90;;;;;;10057444;28;20032;-73
2023/10/18 05:54:04;;;;;;;7.72;3.78;;;8.60;99.90;;;;;;10058496;28;20041;-72
2023/10/18 05:59:15;;;;;;;7.30;4.30;;;8.60;99.90;;;;;;10056915;28;20036;-73
2023/10/18 06:04:06;;;;;;;5.47;3.55;;;8.60;99.90;;;;;;10056357;28;20561;-72
2023/10/18 06:08:57;;;;;;;7.78;4.25;;;8.60;99.90;;;;;;10035893;28;20024;-72
2023/10/18 06:13:48;;;;;;;5.20;3.75;;;8.60;99.90;;;;;;10055893;28;20033;-72
2023/10/18 06:18:39;;;;;;;8.00;3.72;;;8.60;99.90;;;;;;10057076;28;20075;-70
2023/10/18 06:28:24;;;;;;;6.95;4.75;;;8.70;99.90;;;;;;10057900;28;20475;-73
2023/10/18 06:33:18;;;;;;;9.23;4.30;;;8.70;99.90;;;;;;10049067;28;20448;-75
2023/10/18 06:38:17;;;;;;;8.00;3.83;;;8.70;99.90;;;;;;10049488;28;20522;-76
2023/10/18 06:43:08;;;;;;;6.70;3.97;;;8.70;99.90;;;;;;10035627;28;20400;-75
2023/10/18 06:48:02;;;;;;;9.52;4.70;;;8.70;99.90;;;;;;10031752;28;20103;-76
2023/10/18 06:52:53;;;;;;;6.10;4.00;;;8.70;99.90;;;;;;10022165;28;20461;-77
2023/10/18 06:57:49;;;;;;;10.07;4.85;;;8.70;99.90;;;;;;10054085;28;20535;-73
2023/10/18 07:02:40;;;;;;;7.72;4.93;;;8.70;99.90;;;;;;10038800;28;20037;-74
2023/10/18 07:07:31;;;;;;;10.45;5.43;;;8.70;99.90;;;;;;10049314;28;20400;-72
2023/10/18 07:12:32;;;;;;;11.05;6.70;;;8.70;99.90;;;;;;10047248;28;20069;-75
2023/10/18 07:17:25;;;;;;;10.75;5.80;;;8.70;99.90;;;;;;10061914;28;20043;-76
2023/10/18 07:22:21;;;;;;;7.35;4.75;;;8.70;99.90;;;;;;10040790;28;20598;-77
2023/10/18 07:27:12;;;;;;;6.63;4.65;;;8.60;99.90;;;;;;10063786;28;20037;-71
2023/10/18 07:32:06;;;;;;;9.18;5.53;;;8.60;99.90;;;;;;10028237;28;20087;-74
2023/10/18 07:36:57;;;;;;;8.27;5.00;;;8.70;99.90;;;;;;10056048;28;20049;-73
2023/10/18 07:41:48;;;;;;;8.85;4.82;;;8.80;99.90;;;;;;10055818;28;20044;-71
2023/10/18 07:46:42;;;;;;;8.90;5.30;;;8.90;99.90;;;;;;10055506;28;20423;-72
2023/10/18 07:51:34;;;;;;;10.05;4.88;;;8.90;99.90;;;;;;10053870;28;20119;-73
2023/10/18 07:56:29;;;;;;;9.02;5.05;;;9.00;99.90;;;;;;10036125;28;20044;-75
2023/10/18 08:06:39;;;;;;;11.35;5.63;;;9.10;99.90;;;;;;10026795;28;20034;-75
2023/10/18 08:11:34;;;;;;;8.52;4.68;;;9.10;99.90;;;;;;10040745;28;20117;-77
2023/10/18 08:16:42;;;;;;;12.25;5.93;;;8.90;99.90;;;;;;10040900;28;20044;-72
2023/10/18 08:21:57;;;;;;;11.77;4.97;;;9.00;99.90;;;;;;10038218;28;20043;-73
2023/10/18 08:26:47;;;;;;;11.45;5.95;;;9.10;99.90;;;;;;10052704;28;20135;-73
2023/10/18 08:31:38;;;;;;;9.00;5.50;;;9.10;99.90;;;;;;10056249;28;20092;-71
2023/10/18 08:36:32;;;;;;;14.27;7.75;;;9.20;99.90;;;;;;10054514;28;20049;-73
2023/10/18 08:41:31;;;;;;;12.85;6.05;;;9.20;99.90;;;;;;10040900;28;20522;-73
2023/10/18 08:46:26;;;;;;;11.20;6.70;;;9.30;99.90;;;;;;10030344;28;20459;-73
2023/10/18 08:51:19;;;;;;;14.13;7.30;;;9.30;99.90;;;;;;10006904;28;20088;-75
2023/10/18 08:56:10;;;;;;;14.10;6.95;;;9.30;99.90;;;;;;10008030;28;19925;-73
2023/10/18 09:06:07;;;;;;;13.10;7.03;;;9.30;99.90;;;;;;10051805;28;20068;-71
2023/10/18 09:10:58;;;;;;;12.00;6.40;;;9.40;99.90;;;;;;10043827;28;20160;-72
2023/10/18 09:16:35;;;;;;;13.80;8.35;;;9.30;99.90;;;;;;10055140;28;20159;-77
2023/10/18 09:26:18;;;;;;;11.02;6.63;;;9.40;99.90;;;;;;10060763;28;20081;-79
2023/10/18 09:31:14;;;;;;;12.13;6.55;;;9.40;99.90;;;;;;10049850;28;20054;-79
2023/10/18 09:36:19;;;;;;;14.32;6.55;;;9.50;99.90;;;;;;10060640;28;20060;-74
2023/10/18 09:41:10;;;;;;;10.70;5.38;;;9.50;99.90;;;;;;10043128;28;20056;-77
2023/10/18 09:46:01;;;;;;;10.68;5.85;;;9.60;99.90;;;;;;10059955;28;20494;-79
2023/10/18 09:51:01;;;;;;;13.15;5.93;;;9.60;99.90;;;;;;10051983;28;20032;-74
2023/10/18 09:55:53;;;;;;;13.52;6.47;;;9.60;99.90;;;;;;10060305;28;20034;-77
2023/10/18 10:00:50;;;;;;;14.07;6.68;;;9.60;99.90;;;;;;10041757;28;20103;-79
2023/10/18 10:05:42;;;;;;;11.73;7.50;;;9.70;99.90;;;;;;10057366;28;20059;-75
2023/10/18 10:10:46;;;;;;;13.88;6.68;;;9.70;99.90;;;;;;10059606;28;20030;-75
2023/10/18 10:15:37;;;;;;;14.48;7.53;;;9.80;99.90;;;;;;10054015;28;20494;-71
2023/10/18 10:20:32;;;;;;;13.15;7.25;;;9.80;99.90;;;;;;10046722;28;20061;-76
2023/10/18 10:25:31;;;;;;;13.80;6.72;;;9.90;99.90;;;;;;10059942;28;20535;-75
2023/10/18 10:35:17;;;;;;;11.45;5.82;;;9.90;99.90;;;;;;10053611;28;20037;-78
2023/10/18 10:40:19;;;;;;;14.18;7.65;;;9.80;99.90;;;;;;10053627;28;20064;-79
2023/10/18 10:50:31;;;;;;;12.75;7.28;;;9.90;99.90;;;;;;10055276;28;20029;-74
2023/10/18 10:55:22;;;;;;;10.73;7.43;;;10.00;99.90;;;;;;10057100;28;20041;-74
2023/10/18 11:05:27;;;;;;;11.18;6.97;;;10.10;99.90;;;;;;10058021;28;20037;-74
2023/10/18 11:10:18;;;;;;;15.15;7.47;;;10.20;99.90;;;;;;10039422;28;20021;-75
2023/10/18 11:15:16;;;;;;;12.02;6.40;;;10.00;99.90;;;;;;10057498;28;20045;-79
2023/10/18 11:20:18;;;;;;;12.65;8.00;;;10.20;99.90;;;;;;10045285;28;20024;-77
2023/10/18 11:25:13;;;;;;;14.82;8.55;;;10.20;99.90;;;;;;10043930;28;20830;-79
2023/10/18 11:35:16;;;;;;;12.48;7.63;;;10.30;99.90;;;;;;10037760;28;20049;-76
2023/10/18 11:40:20;;;;;;;13.40;7.50;;;10.30;99.90;;;;;;10029582;28;20061;-73
2023/10/18 11:45:19;;;;;;;13.05;7.75;;;10.40;99.90;;;;;;10050608;28;20041;-75
2023/10/18 11:50:13;;;;;;;16.60;7.63;;;10.50;99.90;;;;;;10055900;28;20021;-74
2023/10/18 11:55:10;;;;;;;13.60;7.30;;;10.40;99.90;;;;;;10048636;28;20290;-75
2023/10/18 12:00:47;;;;;;;12.30;6.75;;;10.50;99.90;;;;;;10062379;28;20037;-78
2023/10/18 12:05:17;;;;;;;14.82;8.02;;;10.50;99.90;;;;;;10044162;28;20503;-74
2023/10/18 12:10:15;;;;;;;12.52;7.55;;;10.50;99.90;;;;;;10060650;28;20083;-74
2023/10/18 12:15:06;;;;;;;11.98;7.40;;;10.50;99.90;;;;;;10043706;28;20025;-76
2023/10/18 12:19:58;;;;;;;13.77;7.53;;;10.50;99.90;;;;;;10060117;28;20022;-77
2023/10/18 12:24:49;;;;;;;15.43;8.00;;;10.50;99.90;;;;;;10056073;28;20026;-75
2023/10/18 12:29:39;;;;;;;14.35;6.68;;;10.60;99.90;;;;;;10033621;28;20049;-75
2023/10/18 12:34:31;;;;;;;12.68;7.18;;;10.60;99.90;;;;;;10041800;28;20045;-73
2023/10/18 12:39:22;;;;;;;12.90;8.13;;;10.70;99.90;;;;;;10057705;28;20033;-77
2023/10/18 12:44:17;;;;;;;10.35;7.53;;;10.70;99.90;;;;;;10042351;28;20076;-72
2023/10/18 12:49:11;;;;;;;;;;;10.60;99.90;;;;;;10061125;28;20128;-71
2023/10/18 12:54:04;;;;;;;10.70;5.25;;;10.60;99.90;;;;;;10057850;28;19917;-71
2023/10/18 13:03:59;;;;;;;12.07;5.82;;;10.80;99.90;;;;;;10054016;28;20022;-75
2023/10/18 13:08:56;;;;;;;10.68;5.65;;;10.70;99.90;;;;;;10056358;28;20025;-75
2023/10/18 13:13:46;;;;;;;9.93;5.75;;;10.70;99.90;;;;;;10053697;28;20473;-75
2023/10/18 13:18:39;;;;;;;9.35;6.53;;;10.80;99.90;;;;;;10059148;28;20029;-73
2023/10/18 13:23:31;;;;;;;10.48;6.32;;;10.80;99.90;;;;;;10054988;28;20025;-77
2023/10/18 13:28:33;;;;;;;9.95;5.97;;;10.80;99.90;;;;;;10049316;28;20506;-75
2023/10/18 13:33:23;;;;;;;8.98;6.18;;;10.90;99.90;;;;;;10054374;28;20193;-73
2023/10/18 13:38:15;;;;;;;11.30;6.68;;;11.00;99.90;;;;;;10044312;28;20112;-76
2023/10/18 13:43:09;;;;;;;11.27;6.28;;;11.00;99.90;;;;;;10056099;28;20486;-78
2023/10/18 13:48:01;;;;;;;12.98;7.13;;;11.10;99.90;;;;;;10047116;28;20566;-75
2023/10/18 13:52:55;;;;;;;13.85;6.50;;;11.10;99.90;;;;;;10029368;28;20037;-75
2023/10/18 13:57:46;;;;;;;10.18;6.43;;;11.10;99.90;;;;;;10031574;28;20045;-73
2023/10/18 14:02:38;;;;;;;11.77;6.28;;;11.10;99.90;;;;;;10050012;28;20563;-75
2023/10/18 14:07:28;;;;;;;10.10;6.68;;;11.10;99.90;;;;;;10048261;28;20032;-76
2023/10/18 14:12:24;;;;;;;15.60;7.20;;;11.10;99.90;;;;;;10037906;28;20026;-75
2023/10/18 14:17:16;;;;;;;12.27;6.97;;;11.20;99.90;;;;;;10033091;28;20104;-75
2023/10/18 14:22:07;;;;;;;12.60;7.20;;;11.30;99.90;;;;;;10039354;28;20495;-75
2023/10/18 14:26:59;;;;;;;17.60;7.32;;;11.30;99.90;;;;;;10048443;28;20611;-73
2023/10/18 14:31:50;;;;;;;9.95;7.00;;;11.40;99.90;;;;;;10045950;28;20134;-74
2023/10/18 14:36:40;;;;;;;11.10;6.65;;;11.30;99.90;;;;;;10032183;28;20451;-74
2023/10/18 14:41:31;;;;;;;13.88;6.75;;;11.30;99.90;;;;;;10045406;28;20109;-74
2023/10/18 14:46:27;;;;;;;14.38;6.60;;;11.30;99.90;;;;;;10041043;28;20072;-74
2023/10/18 14:51:21;;;;;;;11.35;7.03;;;11.30;99.90;;;;;;10035708;28;20018;-74
2023/10/18 14:56:15;;;;;;;12.50;7.95;;;11.30;99.90;;;;;;10028322;28;20095;-72
2023/10/18 15:01:06;;;;;;;10.65;6.90;;;11.30;99.90;;;;;;10035912;28;20021;-71
2023/10/18 15:05:59;;;;;;;12.57;7.53;;;11.30;99.90;;;;;;10030607;28;20484;-72
2023/10/18 15:10:50;;;;;;;12.40;7.60;;;11.30;99.90;;;;;;10050885;28;20028;-80
2023/10/18 15:15:40;;;;;;;13.10;7.82;;;11.40;99.90;;;;;;10052504;28;20037;-71
2023/10/18 15:20:31;;;;;;;12.55;6.95;;;11.40;99.90;;;;;;10053455;28;20021;-73
2023/10/18 15:25:22;;;;;;;11.10;6.90;;;11.40;99.90;;;;;;10041706;28;20033;-77
2023/10/18 15:30:16;;;;;;;12.95;7.22;;;11.40;99.90;;;;;;10053970;28;20049;-81
2023/10/18 15:35:07;;;;;;;10.07;6.95;;;11.30;99.90;;;;;;10038984;28;20059;-80
2023/10/18 15:39:57;;;;;;;13.68;7.20;;;11.40;99.90;;;;;;10062431;28;20529;-74
2023/10/18 15:44:48;;;;;;;12.65;6.40;;;11.40;99.90;;;;;;10049585;28;20060;-76
2023/10/18 15:49:39;;;;;;;13.15;7.05;;;11.40;99.90;;;;;;10049534;28;20026;-77
2023/10/18 15:54:30;;;;;;;15.07;8.27;;;11.40;99.90;;;;;;10043439;28;20029;-70
2023/10/18 15:59:21;;;;;;;13.60;7.00;;;11.40;99.90;;;;;;10032784;28;20033;-71
2023/10/18 16:04:13;;;;;;;9.73;6.85;;;11.40;99.90;;;;;;10063429;28;20408;-73
2023/10/18 16:09:09;;;;;;;14.05;7.85;;;11.40;99.90;;;;;;10059354;28;20013;-74
2023/10/18 16:14:00;;;;;;;13.57;8.10;;;11.40;99.90;;;;;;10035643;28;20476;-74
2023/10/18 16:18:57;;;;;;;11.85;7.10;;;11.40;99.90;;;;;;10049606;28;20018;-72
2023/10/18 16:23:50;;;;;;;15.15;8.07;;;11.40;99.90;;;;;;10027254;28;20045;-76
2023/10/18 16:28:45;;;;;;;13.75;9.00;;;11.40;99.90;;;;;;10055071;28;20504;-75
2023/10/18 16:33:37;;;;;;;12.57;7.43;;;11.30;99.90;;;;;;10058906;28;20045;-80
2023/10/18 16:38:29;;;;;;;16.63;7.88;;;11.40;99.90;;;;;;10051056;28;20473;-79
2023/10/18 16:43:19;;;;;;;15.43;8.43;;;11.40;99.90;;;;;;10047174;28;20573;-76
2023/10/18 16:48:10;;;;;;;15.18;8.95;;;11.40;99.90;;;;;;10051114;28;20369;-76
2023/10/18 16:53:01;;;;;;;14.18;7.80;;;11.40;99.90;;;;;;10048600;28;20121;-78
2023/10/18 16:57:51;;;;;;;14.40;8.50;;;11.40;99.90;;;;;;10047998;28;20069;-81
2023/10/18 17:02:44;;;;;;;13.10;8.35;;;11.30;99.90;;;;;;10053023;28;20034;-80
2023/10/18 17:07:37;;;;;;;13.05;8.15;;;11.30;99.90;;;;;;10055112;28;20021;-77
2023/10/18 17:12:28;;;;;;;14.85;8.90;;;11.30;99.90;;;;;;10053147;28;20129;-71
2023/10/18 17:17:18;;;;;;;12.60;7.95;;;11.30;99.90;;;;;;10057000;28;20112;-71
2023/10/18 17:22:09;;;;;;;16.45;8.32;;;11.30;99.90;;;;;;10057308;28;20426;-72
2023/10/18 17:27:03;;;;;;;14.43;9.30;;;11.40;99.90;;;;;;10057264;28;20021;-70
2023/10/18 17:31:54;;;;;;;15.80;9.20;;;11.40;99.90;;;;;;10057659;28;20052;-72
2023/10/18 17:36:44;;;;;;;14.13;8.52;;;11.30;99.90;;;;;;10037488;28;20396;-73
2023/10/18 17:41:35;;;;;;;16.50;8.93;;;11.30;99.90;;;;;;10050612;28;20033;-77
2023/10/18 17:46:26;;;;;;;16.25;9.82;;;11.30;99.90;;;;;;10033585;28;20120;-76
2023/10/18 17:51:17;;;;;;;15.38;9.80;;;11.30;99.90;;;;;;10054240;28;20041;-76
2023/10/18 17:56:10;;;;;;;13.57;8.35;;;11.40;99.90;;;;;;10051154;28;20053;-75
2023/10/18 18:01:02;;;;;;;15.57;9.45;;;11.40;99.90;;;;;;10053987;28;20114;-77
2023/10/18 18:05:53;;;;;;;18.58;10.13;;;11.40;99.90;;;;;;10044343;28;20463;-75
2023/10/18 18:10:46;;;;;;;15.23;8.90;;;11.30;99.90;;;;;;10024268;28;20045;-76
2023/10/18 18:15:37;;;;;;;17.25;9.68;;;11.30;99.90;;;;;;10035028;28;20322;-74
2023/10/18 18:20:29;;;;;;;15.70;9.02;;;11.30;99.90;;;;;;10030448;28;20560;-73
2023/10/18 18:25:20;;;;;;;17.65;10.25;;;11.30;99.90;;;;;;10051354;28;20032;-72
2023/10/18 18:30:11;;;;;;;17.52;9.88;;;11.30;99.90;;;;;;10052198;28;20056;-73
2023/10/18 18:35:03;;;;;;;17.67;9.95;;;11.40;99.90;;;;;;10046845;28;20033;-73
2023/10/18 18:39:57;;;;;;;17.58;9.98;;;11.40;99.90;;;;;;10055066;28;20423;-75
2023/10/18 18:44:48;;;;;;;14.75;9.48;;;11.50;99.90;;;;;;10051377;28;20435;-76
2023/10/18 18:49:40;;;;;;;17.80;10.70;;;11.50;99.90;;;;;;10052425;28;20029;-73
2023/10/18 18:54:31;;;;;;;14.80;8.75;;;11.60;99.90;;;;;;10047184;28;20511;-70
2023/10/18 18:59:28;;;;;;;15.63;9.55;;;11.50;99.90;;;;;;10033002;28;20038;-76
2023/10/18 19:04:18;;;;;;;17.25;8.82;;;11.50;99.90;;;;;;10041518;28;20080;-77
2023/10/18 19:09:09;;;;;;;18.77;9.45;;;11.60;99.90;;;;;;10050289;28;20084;-75
2023/10/18 19:14:00;;;;;;;17.00;10.20;;;11.60;99.90;;;;;;10037235;28;20411;-77
2023/10/18 19:18:50;;;;;;;17.55;10.35;;;11.60;99.90;;;;;;10045843;28;20117;-73
2023/10/18 19:23:41;;;;;;;19.95;12.13;;;11.70;99.90;;;;;;10046455;28;20047;-71
2023/10/18 19:28:32;;;;;;;16.95;10.18;;;11.60;99.90;;;;;;10049785;28;20040;-75
2023/10/18 19:33:23;;;;;;;16.75;8.95;;;11.70;99.90;;;;;;10051634;28;20045;-75
2023/10/18 19:38:14;;;;;;;17.38;9.25;;;11.70;99.90;;;;;;10048233;28;20021;-79
2023/10/18 19:43:05;;;;;;;16.30;9.57;;;11.60;99.90;;;;;;10044396;28;20033;-76
2023/10/18 19:47:55;;;;;;;18.45;10.13;;;11.70;99.90;;;;;;10054507;28;20025;-74
2023/10/18 19:52:46;;;;;;;18.83;9.27;;;11.60;99.90;;;;;;10051701;28;20044;-74
2023/10/18 19:57:37;;;;;;;15.13;9.00;;;11.70;99.90;;;;;;10053042;28;20034;-76
2023/10/18 20:02:27;;;;;;;14.88;8.82;;;11.70;99.90;;;;;;10053012;28;20022;-73
2023/10/18 20:07:18;;;;;;;12.38;7.50;;;11.70;99.90;;;;;;10040536;28;20088;-77
2023/10/18 20:12:09;;;;;;;14.25;8.25;;;11.70;99.90;;;;;;10050858;28;20128;-73
2023/10/18 20:17:00;;;;;;;11.65;7.85;;;11.70;99.90;;;;;;10060980;28;20045;-70
2023/10/18 20:21:51;;;;;;;12.15;7.93;;;11.80;99.90;;;;;;10066126;28;20033;-75
2023/10/18 20:26:41;;;;;;;13.57;7.90;;;11.80;99.90;;;;;;10042563;28;20029;-74
2023/10/18 20:31:33;;;;;;;11.75;7.13;;;11.80;99.90;;;;;;10061299;28;20049;-72
2023/10/18 20:36:23;;;;;;;15.43;7.80;;;11.80;99.90;;;;;;10061060;28;20037;-70
2023/10/18 20:41:15;;;;;;;11.70;6.38;;;11.80;99.90;;;;;;10061066;28;20040;-74
2023/10/18 20:46:16;;;;;;;11.90;6.78;;;11.80;99.90;;;;;;10060898;28;20025;-72
2023/10/18 20:51:08;;;;;;;10.85;6.85;;;11.80;99.90;;;;;;10058789;28;21339;-75
2023/10/18 20:56:00;;;;;;;11.68;6.75;;;11.80;99.90;;;;;;10060463;28;20087;-74
2023/10/18 21:00:51;;;;;;;11.05;6.32;;;11.80;99.90;;;;;;10051341;28;20029;-76
2023/10/18 21:05:43;;;;;;;12.73;6.32;;;11.90;99.90;;;;;;10051240;28;20124;-74
2023/10/18 21:10:33;;;;;;;10.65;6.22;;;11.90;99.90;;;;;;10054492;28;20053;-73
2023/10/18 21:15:28;;;;;;;10.93;6.60;;;11.90;99.90;;;;;;10044481;28;20500;-72
2023/10/18 21:20:22;;;;;;;11.82;6.97;;;12.00;99.90;;;;;;10057733;28;20033;-74
2023/10/18 21:25:13;;;;;;;10.25;6.13;;;12.00;99.90;;;;;;10044006;28;20033;-72
2023/10/18 21:30:09;;;;;;;10.18;6.53;;;11.90;99.90;;;;;;10032322;28;20218;-69
2023/10/18 21:35:00;;;;;;;10.98;6.63;;;12.00;99.90;;;;;;10054625;28;20108;-78
2023/10/18 21:39:52;;;;;;;10.55;6.20;;;12.00;99.90;;;;;;10050956;28;20503;-68
2023/10/18 21:44:44;;;;;;;10.60;7.20;;;12.00;99.90;;;;;;10052123;28;20103;-73
2023/10/18 21:49:35;;;;;;;12.73;6.00;;;12.00;99.90;;;;;;10050390;28;20100;-71
2023/10/18 21:54:25;;;;;;;9.95;5.80;;;12.00;99.90;;;;;;10054453;28;20049;-72
2023/10/18 21:59:16;;;;;;;11.13;5.85;;;12.00;99.90;;;;;;10056756;28;20068;-69
2023/10/18 22:04:07;;;;;;;11.13;5.95;;;12.10;99.90;;;;;;10056413;28;20037;-70
2023/10/18 22:09:05;;;;;;;11.43;6.30;;;12.10;99.90;;;;;;10052373;28;20483;-76
2023/10/18 22:13:59;;;;;;;9.98;6.10;;;12.00;99.90;;;;;;10058008;28;20040;-69
2023/10/18 22:18:56;;;;;;;11.00;7.55;;;12.00;99.90;;;;;;10063752;28;20308;-72
2023/10/18 22:23:48;;;;;;;15.10;6.80;;;12.00;99.90;;;;;;10052806;28;20487;-69
2023/10/18 22:28:42;;;;;;;10.07;6.85;;;12.10;99.90;;;;;;10054839;28;20037;-70
2023/10/18 22:33:34;;;;;;;10.77;6.10;;;12.10;99.90;;;;;;10053621;28;20045;-72
2023/10/18 22:38:25;;;;;;;11.60;6.82;;;12.10;99.90;;;;;;10050166;28;20030;-71
2023/10/18 22:43:19;;;;;;;10.57;5.95;;;12.10;99.90;;;;;;10042772;28;20041;-75
2023/10/18 22:48:22;;;;;;;11.45;6.32;;;12.10;99.90;;;;;;10045578;28;20105;-75
2023/10/18 22:58:10;;;;;;;9.80;5.50;;;12.10;99.90;;;;;;10051832;28;20025;-74
2023/10/18 23:03:02;;;;;;;8.15;6.30;;;12.20;99.90;;;;;;10055771;28;20043;-71
2023/10/18 23:07:53;;;;;;;8.15;5.88;;;12.20;99.90;;;;;;10038178;28;20029;-72
2023/10/18 23:12:44;;;;;;;8.63;5.47;;;12.20;99.90;;;;;;10055588;28;20103;-69
2023/10/18 23:17:41;;;;;;;10.98;5.75;;;12.30;99.90;;;;;;10061140;28;20518;-73
2023/10/18 23:22:46;;;;;;;9.07;5.47;;;12.30;99.90;;;;;;10056121;28;20106;-71
2023/10/18 23:32:57;;;;;;;7.18;4.97;;;12.40;99.90;;;;;;10055651;28;20048;-74
2023/10/18 23:37:55;;;;;;;9.65;5.38;;;12.40;99.90;;;;;;10052179;28;20503;-75
2023/10/18 23:42:50;;;;;;;8.65;5.63;;;12.40;99.90;;;;;;10053698;28;20025;-71
2023/10/18 23:52:48;;;;;;;7.43;4.70;;;12.40;99.90;;;;;;10057930;28;20099;-71
2023/10/18 23:57:39;;;;;;;7.65;4.60;;;12.50;99.90;;;;;;10062743;28;20442;-75
